Banner, Wyoming
Current Conditions -  °F | °C
As of 3:53 PM on Tuesday 27 Jan 2015 (Local Time) from KSHR Reporting Station
Clear Clear  
Wind Chill: 50°   Ceiling: Unl
Heat Index: 50°   Visibility: 10mi
Dew Point: 33°   Wind: 7mph
Humidity: 52%   Direction: 270°W
Pressure: 29.88"   Gusts: NA
Location:  44.6°N, 106.87°W
Report Text: KSHR 272253Z AUTO 27006KT 10SM CLR 10/01 A2988 RMK AO2 SLP123 T01000006
Loading
Personal Weather Stations






























Interactive Weather Map New forecast layout! Learn more

10-Day Weather Forecast

Advertisements
Track Severe Weather on mobile